sensor_id;sensor_type;location;lat;lon;timestamp;P1;durP1;ratioP1;P2;durP2;ratioP2
55987;SDS011;67216;50.930;4.514;2023-02-19T00:03:58;14.98;;;9.60;;
55987;SDS011;67216;50.930;4.514;2023-02-19T00:06:26;16.08;;;10.48;;
55987;SDS011;67216;50.930;4.514;2023-02-19T00:08:54;17.63;;;10.65;;
55987;SDS011;67216;50.930;4.514;2023-02-19T00:11:21;16.17;;;10.70;;
55987;SDS011;67216;50.930;4.514;2023-02-19T00:13:51;17.67;;;10.98;;
55987;SDS011;67216;50.930;4.514;2023-02-19T00:16:29;18.35;;;12.02;;
55987;SDS011;67216;50.930;4.514;2023-02-19T00:19:00;19.92;;;12.00;;
55987;SDS011;67216;50.930;4.514;2023-02-19T00:21:29;21.27;;;13.15;;
55987;SDS011;67216;50.930;4.514;2023-02-19T00:23:57;20.38;;;13.05;;
55987;SDS011;67216;50.930;4.514;2023-02-19T00:26:24;21.33;;;14.48;;
55987;SDS011;67216;50.930;4.514;2023-02-19T00:28:54;26.45;;;15.07;;
55987;SDS011;67216;50.930;4.514;2023-02-19T00:33:50;27.58;;;15.98;;
55987;SDS011;67216;50.930;4.514;2023-02-19T00:36:21;26.42;;;15.18;;
55987;SDS011;67216;50.930;4.514;2023-02-19T00:38:48;23.75;;;15.45;;
55987;SDS011;67216;50.930;4.514;2023-02-19T00:41:14;31.80;;;14.95;;
55987;SDS011;67216;50.930;4.514;2023-02-19T00:46:19;24.17;;;15.35;;
55987;SDS011;67216;50.930;4.514;2023-02-19T00:48:50;24.98;;;14.60;;
55987;SDS011;67216;50.930;4.514;2023-02-19T00:51:20;22.77;;;14.13;;
55987;SDS011;67216;50.930;4.514;2023-02-19T00:53:51;22.17;;;13.82;;
55987;SDS011;67216;50.930;4.514;2023-02-19T00:56:17;27.30;;;13.77;;
55987;SDS011;67216;50.930;4.514;2023-02-19T00:58:43;20.27;;;13.35;;
55987;SDS011;67216;50.930;4.514;2023-02-19T01:01:12;26.55;;;13.93;;
55987;SDS011;67216;50.930;4.514;2023-02-19T01:03:38;20.77;;;13.10;;
55987;SDS011;67216;50.930;4.514;2023-02-19T01:06:05;24.08;;;13.85;;
55987;SDS011;67216;50.930;4.514;2023-02-19T01:08:33;22.40;;;12.82;;
55987;SDS011;67216;50.930;4.514;2023-02-19T01:11:02;18.70;;;11.60;;
55987;SDS011;67216;50.930;4.514;2023-02-19T01:13:28;19.63;;;12.85;;
55987;SDS011;67216;50.930;4.514;2023-02-19T01:16:09;22.85;;;12.93;;
55987;SDS011;67216;50.930;4.514;2023-02-19T01:18:40;23.17;;;11.82;;
55987;SDS011;67216;50.930;4.514;2023-02-19T01:21:08;23.52;;;12.25;;
55987;SDS011;67216;50.930;4.514;2023-02-19T01:23:37;19.15;;;10.75;;
55987;SDS011;67216;50.930;4.514;2023-02-19T01:26:06;23.38;;;11.73;;
55987;SDS011;67216;50.930;4.514;2023-02-19T01:28:34;21.23;;;12.40;;
55987;SDS011;67216;50.930;4.514;2023-02-19T01:31:02;21.05;;;11.55;;
55987;SDS011;67216;50.930;4.514;2023-02-19T01:33:29;18.65;;;11.38;;
55987;SDS011;67216;50.930;4.514;2023-02-19T01:35:55;22.70;;;10.55;;
55987;SDS011;67216;50.930;4.514;2023-02-19T01:38:21;19.92;;;10.88;;
55987;SDS011;67216;50.930;4.514;2023-02-19T01:40:54;14.98;;;10.00;;
55987;SDS011;67216;50.930;4.514;2023-02-19T01:43:20;19.35;;;10.50;;
55987;SDS011;67216;50.930;4.514;2023-02-19T01:45:48;16.67;;;10.13;;
55987;SDS011;67216;50.930;4.514;2023-02-19T01:48:18;20.17;;;8.93;;
55987;SDS011;67216;50.930;4.514;2023-02-19T01:50:50;16.95;;;9.20;;
55987;SDS011;67216;50.930;4.514;2023-02-19T01:53:22;20.27;;;9.65;;
55987;SDS011;67216;50.930;4.514;2023-02-19T01:55:55;15.35;;;8.75;;
55987;SDS011;67216;50.930;4.514;2023-02-19T02:00:50;18.40;;;8.13;;
55987;SDS011;67216;50.930;4.514;2023-02-19T02:03:17;20.48;;;7.55;;
55987;SDS011;67216;50.930;4.514;2023-02-19T02:08:26;19.70;;;8.70;;
55987;SDS011;67216;50.930;4.514;2023-02-19T02:11:14;20.42;;;7.75;;
55987;SDS011;67216;50.930;4.514;2023-02-19T02:13:41;19.80;;;7.15;;
55987;SDS011;67216;50.930;4.514;2023-02-19T02:29:54;17.23;;;5.63;;
55987;SDS011;67216;50.930;4.514;2023-02-19T02:36:04;14.60;;;5.50;;
55987;SDS011;67216;50.930;4.514;2023-02-19T02:38:31;9.07;;;4.10;;
55987;SDS011;67216;50.930;4.514;2023-02-19T02:41:01;13.10;;;4.95;;
55987;SDS011;67216;50.930;4.514;2023-02-19T02:43:28;19.08;;;4.57;;
55987;SDS011;67216;50.930;4.514;2023-02-19T02:45:54;16.48;;;5.05;;
55987;SDS011;67216;50.930;4.514;2023-02-19T02:48:32;17.05;;;4.93;;
55987;SDS011;67216;50.930;4.514;2023-02-19T02:53:45;18.40;;;5.32;;
55987;SDS011;67216;50.930;4.514;2023-02-19T02:56:37;19.02;;;5.03;;
55987;SDS011;67216;50.930;4.514;2023-02-19T02:59:09;16.40;;;4.10;;
55987;SDS011;67216;50.930;4.514;2023-02-19T03:01:47;16.35;;;4.20;;
55987;SDS011;67216;50.930;4.514;2023-02-19T03:07:57;17.25;;;3.90;;
55987;SDS011;67216;50.930;4.514;2023-02-19T03:13:41;19.73;;;3.97;;
55987;SDS011;67216;50.930;4.514;2023-02-19T03:16:25;17.92;;;4.22;;
55987;SDS011;67216;50.930;4.514;2023-02-19T03:19:14;15.23;;;3.65;;
55987;SDS011;67216;50.930;4.514;2023-02-19T03:21:53;14.50;;;3.70;;
55987;SDS011;67216;50.930;4.514;2023-02-19T03:24:24;15.23;;;3.97;;
55987;SDS011;67216;50.930;4.514;2023-02-19T03:27:11;15.68;;;3.78;;
55987;SDS011;67216;50.930;4.514;2023-02-19T03:29:39;14.48;;;3.50;;
55987;SDS011;67216;50.930;4.514;2023-02-19T03:32:25;17.55;;;3.90;;
55987;SDS011;67216;50.930;4.514;2023-02-19T03:35:05;13.85;;;3.75;;
55987;SDS011;67216;50.930;4.514;2023-02-19T03:37:39;14.95;;;3.25;;
55987;SDS011;67216;50.930;4.514;2023-02-19T03:40:08;16.13;;;3.85;;
55987;SDS011;67216;50.930;4.514;2023-02-19T03:42:38;19.50;;;3.65;;
55987;SDS011;67216;50.930;4.514;2023-02-19T03:45:51;16.70;;;4.00;;
55987;SDS011;67216;50.930;4.514;2023-02-19T03:48:26;14.60;;;3.63;;
55987;SDS011;67216;50.930;4.514;2023-02-19T03:51:22;16.42;;;3.88;;
55987;SDS011;67216;50.930;4.514;2023-02-19T03:56:44;19.02;;;4.72;;
55987;SDS011;67216;50.930;4.514;2023-02-19T03:59:37;18.15;;;3.40;;
55987;SDS011;67216;50.930;4.514;2023-02-19T04:02:17;15.07;;;3.85;;
55987;SDS011;67216;50.930;4.514;2023-02-19T04:07:32;20.83;;;3.75;;
55987;SDS011;67216;50.930;4.514;2023-02-19T04:10:04;15.25;;;3.75;;
55987;SDS011;67216;50.930;4.514;2023-02-19T04:12:32;16.10;;;3.58;;
55987;SDS011;67216;50.930;4.514;2023-02-19T04:15:02;16.95;;;3.75;;
55987;SDS011;67216;50.930;4.514;2023-02-19T04:17:36;15.50;;;3.42;;
55987;SDS011;67216;50.930;4.514;2023-02-19T04:20:08;11.27;;;3.50;;
55987;SDS011;67216;50.930;4.514;2023-02-19T04:22:36;17.15;;;3.67;;
55987;SDS011;67216;50.930;4.514;2023-02-19T04:25:04;20.23;;;3.80;;
55987;SDS011;67216;50.930;4.514;2023-02-19T04:27:31;13.30;;;3.40;;
55987;SDS011;67216;50.930;4.514;2023-02-19T04:30:03;15.00;;;3.47;;
55987;SDS011;67216;50.930;4.514;2023-02-19T04:32:31;17.35;;;3.78;;
55987;SDS011;67216;50.930;4.514;2023-02-19T04:34:56;14.98;;;3.28;;
55987;SDS011;67216;50.930;4.514;2023-02-19T04:37:22;15.75;;;3.28;;
55987;SDS011;67216;50.930;4.514;2023-02-19T04:39:48;13.10;;;3.28;;
55987;SDS011;67216;50.930;4.514;2023-02-19T04:42:14;17.80;;;3.63;;
55987;SDS011;67216;50.930;4.514;2023-02-19T04:44:39;20.73;;;4.00;;
55987;SDS011;67216;50.930;4.514;2023-02-19T04:47:07;17.98;;;3.67;;
55987;SDS011;67216;50.930;4.514;2023-02-19T04:49:33;20.20;;;4.05;;
55987;SDS011;67216;50.930;4.514;2023-02-19T04:52:01;16.52;;;3.67;;
55987;SDS011;67216;50.930;4.514;2023-02-19T04:54:27;21.73;;;3.65;;
55987;SDS011;67216;50.930;4.514;2023-02-19T04:56:53;19.98;;;3.53;;
55987;SDS011;67216;50.930;4.514;2023-02-19T04:59:21;14.98;;;3.13;;
55987;SDS011;67216;50.930;4.514;2023-02-19T05:01:47;21.60;;;3.88;;
55987;SDS011;67216;50.930;4.514;2023-02-19T05:04:13;23.80;;;4.18;;
55987;SDS011;67216;50.930;4.514;2023-02-19T05:06:39;20.27;;;4.00;;
55987;SDS011;67216;50.930;4.514;2023-02-19T05:09:05;20.50;;;3.63;;
55987;SDS011;67216;50.930;4.514;2023-02-19T05:11:31;20.02;;;3.90;;
55987;SDS011;67216;50.930;4.514;2023-02-19T05:13:57;15.45;;;3.65;;
55987;SDS011;67216;50.930;4.514;2023-02-19T05:16:25;16.88;;;3.65;;
55987;SDS011;67216;50.930;4.514;2023-02-19T05:18:51;19.83;;;3.95;;
55987;SDS011;67216;50.930;4.514;2023-02-19T05:21:17;18.85;;;4.25;;
55987;SDS011;67216;50.930;4.514;2023-02-19T05:23:43;22.48;;;3.33;;
55987;SDS011;67216;50.930;4.514;2023-02-19T05:26:13;28.10;;;4.00;;
55987;SDS011;67216;50.930;4.514;2023-02-19T05:28:42;22.30;;;4.32;;
55987;SDS011;67216;50.930;4.514;2023-02-19T05:31:11;18.88;;;3.33;;
55987;SDS011;67216;50.930;4.514;2023-02-19T05:33:38;21.70;;;4.63;;
55987;SDS011;67216;50.930;4.514;2023-02-19T05:36:09;14.10;;;3.05;;
55987;SDS011;67216;50.930;4.514;2023-02-19T05:38:36;17.00;;;3.00;;
55987;SDS011;67216;50.930;4.514;2023-02-19T05:41:10;27.48;;;4.88;;
55987;SDS011;67216;50.930;4.514;2023-02-19T05:43:37;22.70;;;3.92;;
55987;SDS011;67216;50.930;4.514;2023-02-19T05:46:04;19.58;;;4.47;;
55987;SDS011;67216;50.930;4.514;2023-02-19T05:48:31;19.35;;;3.30;;
55987;SDS011;67216;50.930;4.514;2023-02-19T05:51:04;25.27;;;4.72;;
55987;SDS011;67216;50.930;4.514;2023-02-19T05:53:31;23.38;;;3.70;;
55987;SDS011;67216;50.930;4.514;2023-02-19T05:56:01;16.35;;;3.33;;
55987;SDS011;67216;50.930;4.514;2023-02-19T05:58:27;15.77;;;3.45;;
55987;SDS011;67216;50.930;4.514;2023-02-19T06:00:54;15.20;;;3.40;;
55987;SDS011;67216;50.930;4.514;2023-02-19T06:03:19;22.65;;;3.22;;
55987;SDS011;67216;50.930;4.514;2023-02-19T06:05:46;19.73;;;3.58;;
55987;SDS011;67216;50.930;4.514;2023-02-19T06:08:12;19.42;;;3.67;;
55987;SDS011;67216;50.930;4.514;2023-02-19T06:10:39;29.35;;;4.95;;
55987;SDS011;67216;50.930;4.514;2023-02-19T06:13:06;22.65;;;4.20;;
55987;SDS011;67216;50.930;4.514;2023-02-19T06:15:33;16.65;;;3.15;;
55987;SDS011;67216;50.930;4.514;2023-02-19T06:17:59;20.17;;;3.58;;
55987;SDS011;67216;50.930;4.514;2023-02-19T06:20:25;21.38;;;4.07;;
55987;SDS011;67216;50.930;4.514;2023-02-19T06:22:51;14.90;;;3.75;;
55987;SDS011;67216;50.930;4.514;2023-02-19T06:25:17;20.15;;;4.25;;
55987;SDS011;67216;50.930;4.514;2023-02-19T06:27:43;18.67;;;3.10;;
55987;SDS011;67216;50.930;4.514;2023-02-19T06:30:09;20.42;;;4.40;;
55987;SDS011;67216;50.930;4.514;2023-02-19T06:32:37;24.05;;;4.32;;
55987;SDS011;67216;50.930;4.514;2023-02-19T06:35:04;19.73;;;3.65;;
55987;SDS011;67216;50.930;4.514;2023-02-19T06:37:29;23.55;;;3.75;;
55987;SDS011;67216;50.930;4.514;2023-02-19T06:39:56;19.30;;;4.07;;
55987;SDS011;67216;50.930;4.514;2023-02-19T06:42:21;18.83;;;4.05;;
55987;SDS011;67216;50.930;4.514;2023-02-19T06:44:47;24.70;;;4.22;;
55987;SDS011;67216;50.930;4.514;2023-02-19T06:47:13;14.57;;;3.85;;
55987;SDS011;67216;50.930;4.514;2023-02-19T06:49:39;23.50;;;4.82;;
55987;SDS011;67216;50.930;4.514;2023-02-19T06:52:08;23.67;;;3.80;;
55987;SDS011;67216;50.930;4.514;2023-02-19T06:54:34;19.83;;;3.65;;
55987;SDS011;67216;50.930;4.514;2023-02-19T06:57:02;19.55;;;3.70;;
55987;SDS011;67216;50.930;4.514;2023-02-19T06:59:30;17.75;;;3.70;;
55987;SDS011;67216;50.930;4.514;2023-02-19T07:01:58;22.17;;;3.72;;
55987;SDS011;67216;50.930;4.514;2023-02-19T07:04:24;16.20;;;3.85;;
55987;SDS011;67216;50.930;4.514;2023-02-19T07:06:53;24.05;;;3.78;;
55987;SDS011;67216;50.930;4.514;2023-02-19T07:09:19;23.08;;;4.53;;
55987;SDS011;67216;50.930;4.514;2023-02-19T07:11:45;20.73;;;4.10;;
55987;SDS011;67216;50.930;4.514;2023-02-19T07:14:13;16.13;;;3.15;;
55987;SDS011;67216;50.930;4.514;2023-02-19T07:16:42;14.77;;;3.92;;
55987;SDS011;67216;50.930;4.514;2023-02-19T07:19:08;18.92;;;3.58;;
55987;SDS011;67216;50.930;4.514;2023-02-19T07:21:38;17.17;;;3.50;;
55987;SDS011;67216;50.930;4.514;2023-02-19T07:24:06;17.75;;;2.92;;
55987;SDS011;67216;50.930;4.514;2023-02-19T07:26:36;21.45;;;3.95;;
55987;SDS011;67216;50.930;4.514;2023-02-19T07:29:04;18.55;;;3.38;;
55987;SDS011;67216;50.930;4.514;2023-02-19T07:31:30;18.27;;;3.45;;
55987;SDS011;67216;50.930;4.514;2023-02-19T07:33:56;12.15;;;3.90;;
55987;SDS011;67216;50.930;4.514;2023-02-19T07:36:22;12.00;;;3.58;;
55987;SDS011;67216;50.930;4.514;2023-02-19T07:38:58;21.67;;;3.97;;
55987;SDS011;67216;50.930;4.514;2023-02-19T07:41:24;17.40;;;3.40;;
55987;SDS011;67216;50.930;4.514;2023-02-19T07:43:53;14.52;;;3.50;;
55987;SDS011;67216;50.930;4.514;2023-02-19T07:46:19;19.23;;;3.17;;
55987;SDS011;67216;50.930;4.514;2023-02-19T07:48:50;16.17;;;3.30;;
55987;SDS011;67216;50.930;4.514;2023-02-19T07:51:17;22.17;;;3.70;;
55987;SDS011;67216;50.930;4.514;2023-02-19T07:53:44;21.25;;;4.25;;
55987;SDS011;67216;50.930;4.514;2023-02-19T07:56:11;22.02;;;3.72;;
55987;SDS011;67216;50.930;4.514;2023-02-19T07:58:40;17.38;;;3.45;;
55987;SDS011;67216;50.930;4.514;2023-02-19T08:01:10;16.33;;;4.00;;
55987;SDS011;67216;50.930;4.514;2023-02-19T08:03:39;19.65;;;3.92;;
55987;SDS011;67216;50.930;4.514;2023-02-19T08:06:08;17.45;;;3.67;;
55987;SDS011;67216;50.930;4.514;2023-02-19T08:08:35;16.75;;;3.38;;
55987;SDS011;67216;50.930;4.514;2023-02-19T08:11:02;21.58;;;4.13;;
55987;SDS011;67216;50.930;4.514;2023-02-19T08:13:47;25.52;;;3.55;;
55987;SDS011;67216;50.930;4.514;2023-02-19T08:16:16;16.65;;;3.20;;
55987;SDS011;67216;50.930;4.514;2023-02-19T08:18:44;20.23;;;4.25;;
55987;SDS011;67216;50.930;4.514;2023-02-19T08:21:11;23.52;;;3.90;;
55987;SDS011;67216;50.930;4.514;2023-02-19T08:23:38;13.90;;;3.42;;
55987;SDS011;67216;50.930;4.514;2023-02-19T08:26:05;15.10;;;3.65;;
55987;SDS011;67216;50.930;4.514;2023-02-19T08:28:31;19.65;;;4.05;;
55987;SDS011;67216;50.930;4.514;2023-02-19T08:30:59;19.25;;;3.47;;
55987;SDS011;67216;50.930;4.514;2023-02-19T08:33:28;15.25;;;3.60;;
55987;SDS011;67216;50.930;4.514;2023-02-19T08:35:55;17.73;;;4.15;;
55987;SDS011;67216;50.930;4.514;2023-02-19T08:38:21;16.10;;;3.65;;
55987;SDS011;67216;50.930;4.514;2023-02-19T08:40:47;16.25;;;3.45;;
55987;SDS011;67216;50.930;4.514;2023-02-19T08:43:15;15.75;;;3.67;;
55987;SDS011;67216;50.930;4.514;2023-02-19T08:45:42;15.95;;;3.00;;
55987;SDS011;67216;50.930;4.514;2023-02-19T08:50:38;14.43;;;2.92;;
55987;SDS011;67216;50.930;4.514;2023-02-19T08:53:05;16.70;;;3.72;;
55987;SDS011;67216;50.930;4.514;2023-02-19T08:55:32;18.08;;;3.78;;
55987;SDS011;67216;50.930;4.514;2023-02-19T08:58:00;15.80;;;4.30;;
55987;SDS011;67216;50.930;4.514;2023-02-19T09:00:26;12.57;;;3.22;;
55987;SDS011;67216;50.930;4.514;2023-02-19T09:02:52;16.30;;;3.40;;
55987;SDS011;67216;50.930;4.514;2023-02-19T09:05:20;20.75;;;4.18;;
55987;SDS011;67216;50.930;4.514;2023-02-19T09:07:48;14.73;;;3.63;;
55987;SDS011;67216;50.930;4.514;2023-02-19T09:10:19;14.07;;;3.45;;
55987;SDS011;67216;50.930;4.514;2023-02-19T09:12:45;21.30;;;4.30;;
55987;SDS011;67216;50.930;4.514;2023-02-19T09:15:11;13.27;;;2.90;;
55987;SDS011;67216;50.930;4.514;2023-02-19T09:17:37;21.50;;;3.50;;
55987;SDS011;67216;50.930;4.514;2023-02-19T09:20:06;15.33;;;3.53;;
55987;SDS011;67216;50.930;4.514;2023-02-19T09:22:34;13.00;;;3.47;;
55987;SDS011;67216;50.930;4.514;2023-02-19T09:25:00;11.77;;;2.80;;
55987;SDS011;67216;50.930;4.514;2023-02-19T09:27:29;15.98;;;4.13;;
55987;SDS011;67216;50.930;4.514;2023-02-19T09:29:57;20.77;;;3.80;;
55987;SDS011;67216;50.930;4.514;2023-02-19T09:32:23;18.20;;;4.03;;
55987;SDS011;67216;50.930;4.514;2023-02-19T09:34:49;14.82;;;3.00;;
55987;SDS011;67216;50.930;4.514;2023-02-19T09:37:15;13.48;;;3.40;;
55987;SDS011;67216;50.930;4.514;2023-02-19T09:39:43;12.90;;;3.25;;
55987;SDS011;67216;50.930;4.514;2023-02-19T09:44:43;21.30;;;3.80;;
55987;SDS011;67216;50.930;4.514;2023-02-19T09:47:19;18.20;;;4.18;;
55987;SDS011;67216;50.930;4.514;2023-02-19T09:49:47;19.85;;;4.07;;
55987;SDS011;67216;50.930;4.514;2023-02-19T09:54:50;16.02;;;3.60;;
55987;SDS011;67216;50.930;4.514;2023-02-19T09:57:21;19.00;;;3.67;;
55987;SDS011;67216;50.930;4.514;2023-02-19T09:59:51;11.52;;;3.22;;
55987;SDS011;67216;50.930;4.514;2023-02-19T10:02:24;11.52;;;3.22;;
55987;SDS011;67216;50.930;4.514;2023-02-19T10:04:54;12.65;;;3.97;;
55987;SDS011;67216;50.930;4.514;2023-02-19T10:07:25;16.17;;;3.80;;
55987;SDS011;67216;50.930;4.514;2023-02-19T10:10:24;15.38;;;3.05;;
55987;SDS011;67216;50.930;4.514;2023-02-19T10:13:14;15.07;;;3.95;;
55987;SDS011;67216;50.930;4.514;2023-02-19T10:18:21;11.18;;;3.20;;
55987;SDS011;67216;50.930;4.514;2023-02-19T10:20:50;11.73;;;3.88;;
55987;SDS011;67216;50.930;4.514;2023-02-19T10:23:17;16.70;;;3.72;;
55987;SDS011;67216;50.930;4.514;2023-02-19T10:25:48;11.68;;;3.22;;
55987;SDS011;67216;50.930;4.514;2023-02-19T10:28:19;12.90;;;4.10;;
55987;SDS011;67216;50.930;4.514;2023-02-19T10:30:52;12.02;;;4.03;;
55987;SDS011;67216;50.930;4.514;2023-02-19T10:33:23;15.48;;;4.00;;
55987;SDS011;67216;50.930;4.514;2023-02-19T10:38:27;17.42;;;4.00;;
55987;SDS011;67216;50.930;4.514;2023-02-19T10:41:05;11.38;;;3.55;;
55987;SDS011;67216;50.930;4.514;2023-02-19T10:43:40;12.65;;;3.50;;
55987;SDS011;67216;50.930;4.514;2023-02-19T10:46:22;14.38;;;4.03;;
55987;SDS011;67216;50.930;4.514;2023-02-19T10:48:54;13.32;;;3.85;;
55987;SDS011;67216;50.930;4.514;2023-02-19T10:51:30;12.13;;;4.07;;
55987;SDS011;67216;50.930;4.514;2023-02-19T10:56:31;11.65;;;3.78;;
55987;SDS011;67216;50.930;4.514;2023-02-19T11:01:52;11.40;;;3.33;;
55987;SDS011;67216;50.930;4.514;2023-02-19T11:04:18;15.30;;;4.22;;
55987;SDS011;67216;50.930;4.514;2023-02-19T11:06:44;13.52;;;3.90;;
55987;SDS011;67216;50.930;4.514;2023-02-19T11:09:24;13.95;;;4.07;;
55987;SDS011;67216;50.930;4.514;2023-02-19T11:12:02;13.63;;;4.22;;
55987;SDS011;67216;50.930;4.514;2023-02-19T11:14:29;14.68;;;3.85;;
55987;SDS011;67216;50.930;4.514;2023-02-19T11:16:57;15.02;;;4.30;;
55987;SDS011;67216;50.930;4.514;2023-02-19T11:19:28;16.92;;;4.80;;
55987;SDS011;67216;50.930;4.514;2023-02-19T11:21:59;11.13;;;4.68;;
55987;SDS011;67216;50.930;4.514;2023-02-19T11:24:42;20.88;;;5.55;;
55987;SDS011;67216;50.930;4.514;2023-02-19T11:27:17;14.48;;;4.95;;
55987;SDS011;67216;50.930;4.514;2023-02-19T11:29:45;17.08;;;4.80;;
55987;SDS011;67216;50.930;4.514;2023-02-19T11:40:32;10.68;;;3.90;;
55987;SDS011;67216;50.930;4.514;2023-02-19T11:45:47;11.68;;;4.00;;
55987;SDS011;67216;50.930;4.514;2023-02-19T11:49:25;12.52;;;4.32;;
55987;SDS011;67216;50.930;4.514;2023-02-19T11:56:48;12.70;;;4.05;;
55987;SDS011;67216;50.930;4.514;2023-02-19T11:59:51;9.43;;;4.15;;
55987;SDS011;67216;50.930;4.514;2023-02-19T12:16:53;13.30;;;4.43;;
55987;SDS011;67216;50.930;4.514;2023-02-19T12:19:29;8.68;;;3.88;;
55987;SDS011;67216;50.930;4.514;2023-02-19T12:33:39;16.05;;;4.50;;
55987;SDS011;67216;50.930;4.514;2023-02-19T12:39:10;10.70;;;3.97;;
55987;SDS011;67216;50.930;4.514;2023-02-19T12:44:15;11.25;;;3.72;;
55987;SDS011;67216;50.930;4.514;2023-02-19T12:47:03;10.50;;;4.57;;
55987;SDS011;67216;50.930;4.514;2023-02-19T12:49:35;11.10;;;5.13;;
55987;SDS011;67216;50.930;4.514;2023-02-19T12:52:11;9.27;;;5.50;;
55987;SDS011;67216;50.930;4.514;2023-02-19T12:55:00;13.82;;;6.55;;
55987;SDS011;67216;50.930;4.514;2023-02-19T12:57:35;17.58;;;8.60;;
55987;SDS011;67216;50.930;4.514;2023-02-19T13:00:08;16.75;;;8.95;;
55987;SDS011;67216;50.930;4.514;2023-02-19T13:06:03;14.32;;;5.32;;
55987;SDS011;67216;50.930;4.514;2023-02-19T13:08:52;10.50;;;4.43;;
55987;SDS011;67216;50.930;4.514;2023-02-19T13:11:45;12.65;;;4.63;;
55987;SDS011;67216;50.930;4.514;2023-02-19T13:16:54;11.40;;;3.85;;
55987;SDS011;67216;50.930;4.514;2023-02-19T13:19:24;9.00;;;3.42;;
55987;SDS011;67216;50.930;4.514;2023-02-19T13:21:51;9.57;;;3.88;;
55987;SDS011;67216;50.930;4.514;2023-02-19T13:24:47;7.88;;;3.70;;
55987;SDS011;67216;50.930;4.514;2023-02-19T13:37:40;9.07;;;3.22;;
55987;SDS011;67216;50.930;4.514;2023-02-19T13:40:26;9.32;;;3.90;;
55987;SDS011;67216;50.930;4.514;2023-02-19T13:42:59;6.07;;;3.28;;
55987;SDS011;67216;50.930;4.514;2023-02-19T13:45:40;11.52;;;4.10;;
55987;SDS011;67216;50.930;4.514;2023-02-19T13:50:47;6.55;;;3.53;;
55987;SDS011;67216;50.930;4.514;2023-02-19T14:12:35;7.30;;;3.55;;
55987;SDS011;67216;50.930;4.514;2023-02-19T14:21:24;7.32;;;3.70;;
55987;SDS011;67216;50.930;4.514;2023-02-19T14:23:59;9.32;;;3.70;;
55987;SDS011;67216;50.930;4.514;2023-02-19T14:26:26;10.43;;;3.53;;
55987;SDS011;67216;50.930;4.514;2023-02-19T14:28:54;8.25;;;4.30;;
55987;SDS011;67216;50.930;4.514;2023-02-19T14:31:29;9.30;;;3.75;;
55987;SDS011;67216;50.930;4.514;2023-02-19T14:34:02;7.30;;;3.50;;
55987;SDS011;67216;50.930;4.514;2023-02-19T14:39:11;11.10;;;4.47;;
55987;SDS011;67216;50.930;4.514;2023-02-19T14:41:39;8.48;;;4.13;;
55987;SDS011;67216;50.930;4.514;2023-02-19T14:46:47;11.88;;;4.50;;
55987;SDS011;67216;50.930;4.514;2023-02-19T14:49:36;8.55;;;4.38;;
55987;SDS011;67216;50.930;4.514;2023-02-19T14:54:52;8.07;;;4.45;;
55987;SDS011;67216;50.930;4.514;2023-02-19T14:57:25;11.90;;;4.90;;
55987;SDS011;67216;50.930;4.514;2023-02-19T14:59:58;6.88;;;4.80;;
55987;SDS011;67216;50.930;4.514;2023-02-19T15:02:29;9.18;;;3.60;;
55987;SDS011;67216;50.930;4.514;2023-02-19T15:04:56;7.70;;;2.88;;
55987;SDS011;67216;50.930;4.514;2023-02-19T15:07:30;6.03;;;3.08;;
55987;SDS011;67216;50.930;4.514;2023-02-19T15:10:01;6.20;;;2.60;;
55987;SDS011;67216;50.930;4.514;2023-02-19T15:12:31;5.90;;;2.60;;
55987;SDS011;67216;50.930;4.514;2023-02-19T15:15:02;5.38;;;2.45;;
55987;SDS011;67216;50.930;4.514;2023-02-19T15:17:30;6.70;;;2.35;;
55987;SDS011;67216;50.930;4.514;2023-02-19T15:20:01;4.82;;;2.65;;
55987;SDS011;67216;50.930;4.514;2023-02-19T15:22:35;5.78;;;2.40;;
55987;SDS011;67216;50.930;4.514;2023-02-19T15:25:04;8.40;;;3.53;;
55987;SDS011;67216;50.930;4.514;2023-02-19T15:27:31;7.45;;;3.05;;
55987;SDS011;67216;50.930;4.514;2023-02-19T15:29:58;6.93;;;3.25;;
55987;SDS011;67216;50.930;4.514;2023-02-19T15:32:24;9.75;;;2.70;;
55987;SDS011;67216;50.930;4.514;2023-02-19T15:34:52;8.75;;;2.47;;
55987;SDS011;67216;50.930;4.514;2023-02-19T15:37:23;4.47;;;2.50;;
55987;SDS011;67216;50.930;4.514;2023-02-19T15:39:52;4.38;;;1.95;;
55987;SDS011;67216;50.930;4.514;2023-02-19T15:42:20;5.45;;;2.58;;
55987;SDS011;67216;50.930;4.514;2023-02-19T15:44:54;4.75;;;2.45;;
55987;SDS011;67216;50.930;4.514;2023-02-19T15:47:40;4.88;;;2.78;;
55987;SDS011;67216;50.930;4.514;2023-02-19T15:52:47;8.82;;;2.67;;
55987;SDS011;67216;50.930;4.514;2023-02-19T16:00:57;4.47;;;2.70;;
55987;SDS011;67216;50.930;4.514;2023-02-19T16:03:32;9.50;;;3.42;;
55987;SDS011;67216;50.930;4.514;2023-02-19T16:06:09;5.78;;;3.30;;
55987;SDS011;67216;50.930;4.514;2023-02-19T16:08:39;5.35;;;2.75;;
55987;SDS011;67216;50.930;4.514;2023-02-19T16:11:25;5.60;;;3.05;;
55987;SDS011;67216;50.930;4.514;2023-02-19T16:14:15;7.10;;;3.75;;
55987;SDS011;67216;50.930;4.514;2023-02-19T16:16:51;5.82;;;3.60;;
55987;SDS011;67216;50.930;4.514;2023-02-19T16:19:53;7.65;;;3.60;;
55987;SDS011;67216;50.930;4.514;2023-02-19T16:22:27;9.98;;;4.25;;
55987;SDS011;67216;50.930;4.514;2023-02-19T16:24:56;8.57;;;4.57;;
55987;SDS011;67216;50.930;4.514;2023-02-19T16:27:27;6.03;;;4.07;;
55987;SDS011;67216;50.930;4.514;2023-02-19T16:29:55;7.03;;;3.65;;
55987;SDS011;67216;50.930;4.514;2023-02-19T16:32:22;7.28;;;3.88;;
55987;SDS011;67216;50.930;4.514;2023-02-19T16:34:49;7.50;;;4.78;;
55987;SDS011;67216;50.930;4.514;2023-02-19T16:37:32;9.50;;;4.35;;
55987;SDS011;67216;50.930;4.514;2023-02-19T16:42:36;7.70;;;3.92;;
55987;SDS011;67216;50.930;4.514;2023-02-19T16:45:22;5.97;;;3.72;;
55987;SDS011;67216;50.930;4.514;2023-02-19T16:47:48;7.53;;;3.95;;
55987;SDS011;67216;50.930;4.514;2023-02-19T16:50:17;7.30;;;4.18;;
55987;SDS011;67216;50.930;4.514;2023-02-19T16:52:52;8.02;;;3.72;;
55987;SDS011;67216;50.930;4.514;2023-02-19T16:55:19;7.07;;;4.13;;
55987;SDS011;67216;50.930;4.514;2023-02-19T16:57:47;8.52;;;4.15;;
55987;SDS011;67216;50.930;4.514;2023-02-19T17:02:50;8.77;;;4.30;;
55987;SDS011;67216;50.930;4.514;2023-02-19T17:05:21;7.15;;;4.13;;
55987;SDS011;67216;50.930;4.514;2023-02-19T17:07:49;16.88;;;5.40;;
55987;SDS011;67216;50.930;4.514;2023-02-19T17:10:19;7.35;;;4.22;;
55987;SDS011;67216;50.930;4.514;2023-02-19T17:12:50;9.10;;;4.70;;
55987;SDS011;67216;50.930;4.514;2023-02-19T17:15:16;8.27;;;4.65;;
55987;SDS011;67216;50.930;4.514;2023-02-19T17:17:43;8.73;;;4.50;;
55987;SDS011;67216;50.930;4.514;2023-02-19T17:20:20;8.48;;;4.90;;
55987;SDS011;67216;50.930;4.514;2023-02-19T17:22:53;8.90;;;4.68;;
55987;SDS011;67216;50.930;4.514;2023-02-19T17:25:20;11.07;;;5.35;;
55987;SDS011;67216;50.930;4.514;2023-02-19T17:27:49;12.25;;;5.80;;
55987;SDS011;67216;50.930;4.514;2023-02-19T17:30:18;12.68;;;6.20;;
55987;SDS011;67216;50.930;4.514;2023-02-19T17:32:48;13.40;;;5.97;;
55987;SDS011;67216;50.930;4.514;2023-02-19T17:35:14;10.55;;;6.00;;
55987;SDS011;67216;50.930;4.514;2023-02-19T17:37:42;9.70;;;6.15;;
55987;SDS011;67216;50.930;4.514;2023-02-19T17:40:21;10.57;;;6.13;;
55987;SDS011;67216;50.930;4.514;2023-02-19T17:42:50;13.38;;;6.80;;
55987;SDS011;67216;50.930;4.514;2023-02-19T17:45:18;9.82;;;5.80;;
55987;SDS011;67216;50.930;4.514;2023-02-19T17:47:47;13.95;;;6.43;;
55987;SDS011;67216;50.930;4.514;2023-02-19T17:50:18;10.80;;;6.75;;
55987;SDS011;67216;50.930;4.514;2023-02-19T17:52:46;11.95;;;7.10;;
55987;SDS011;67216;50.930;4.514;2023-02-19T17:55:12;10.23;;;6.68;;